KLYO/LYO METAR and TAF weather

Enter ICAO airport designator
Station Type Date Time Source
KLYO METAR 2021/06/22 23:35 UTC NOAA

KLYO 222335Z AUTO 19021G25KT 10SM CLR 30/10 A2985 RMK AO2 T03010099


Station Type Date Time Source
KLYO Decoded METAR 2021/06/22 23:35 UTC NOAA

Station name not available
Jun 22, 2021 - 07:35 PM EDT / 2021.06.22 2335 UTC
Wind: from the S (190 degrees) at 24 MPH (21 KT) gusting to 29 MPH (25 KT):0
Visibility: 10 mile(s):0
Sky conditions: clear
Temperature: 86.2 F (30.1 C)
Dew Point: 49.8 F (9.9 C)
Relative Humidity: 28%
Pressure (altimeter): 29.85 in. Hg (1010 hPa)
ob: KLYO 222335Z AUTO 19021G25KT 10SM CLR 30/10 A2985 RMK AO2 T03010099
cycle: 23

Station Type Date Time Source
KLYO TAF UTC NOAA

Error!

Example: see airport list